Surface Data

86.4 °F / 30.2 °C
SE at 12 MPH
72%
76.6°F / 24.8 °C
29.85" (1010 mb)
10 mile(s)
partly cloudy
2021.10.25 2320 UTC

Surface Data

Raw METARs

2021/10/25 23:20
PKWA 252320Z AUTO 13010KT 10SM SCT020 SCT032 30/25 A2985 RMK AO2 T03020248

Translated METAR

Kwajalein, Bucholz AAF, Kwajalein KMR ATOL Airport, Marshall Islands (PKWA) 08-43N 167-44E 2M
Oct 25, 2021 - 07:20 PM EDT / 2021.10.25 2320 UTC
Wind: from the SE (130 degrees) at 12 MPH (10 KT):0
Visibility: 10 mile(s):0
Sky conditions: partly cloudy
Temperature: 86.4 F (30.2 C)
Heat index: 97.0 F (36.1 C):1
Dew Point: 76.6 F (24.8 C)
Relative Humidity: 72%
Pressure (altimeter): 29.85 in. Hg (1010 hPa)
ob: PKWA 252320Z AUTO 13010KT 10SM SCT020 SCT032 30/25 A2985 RMK AO2 T03020248
cycle: 23